sensor_id;sensor_type;location;lat;lon;timestamp;pressure;altitude;pressure_sealevel;temperature;humidity
71149;BME280;59072;42.144;25.200;2022-10-16T00:00:52;100810.13;;;10.34;70.84
71149;BME280;59072;42.144;25.200;2022-10-16T00:03:17;100820.59;;;10.00;72.28
71149;BME280;59072;42.144;25.200;2022-10-16T00:05:44;100826.50;;;9.89;72.57
71149;BME280;59072;42.144;25.200;2022-10-16T00:08:11;100826.09;;;9.99;72.05
71149;BME280;59072;42.144;25.200;2022-10-16T00:10:37;100825.09;;;9.65;74.11
71149;BME280;59072;42.144;25.200;2022-10-16T00:13:03;100829.81;;;9.70;73.76
71149;BME280;59072;42.144;25.200;2022-10-16T00:15:30;100816.91;;;9.67;73.82
71149;BME280;59072;42.144;25.200;2022-10-16T00:17:55;100822.09;;;9.75;73.22
71149;BME280;59072;42.144;25.200;2022-10-16T00:20:21;100821.41;;;9.38;74.91
71149;BME280;59072;42.144;25.200;2022-10-16T00:22:46;100806.16;;;9.53;73.98
71149;BME280;59072;42.144;25.200;2022-10-16T00:25:11;100802.81;;;9.44;74.12
71149;BME280;59072;42.144;25.200;2022-10-16T00:27:37;100822.16;;;9.88;72.48
71149;BME280;59072;42.144;25.200;2022-10-16T00:30:03;100829.31;;;10.16;71.38
71149;BME280;59072;42.144;25.200;2022-10-16T00:32:28;100829.00;;;9.97;71.99
71149;BME280;59072;42.144;25.200;2022-10-16T00:34:54;100814.19;;;9.95;71.78
71149;BME280;59072;42.144;25.200;2022-10-16T00:37:20;100824.59;;;10.18;70.54
71149;BME280;59072;42.144;25.200;2022-10-16T00:39:46;100826.84;;;10.21;70.83
71149;BME280;59072;42.144;25.200;2022-10-16T00:42:16;100805.22;;;10.02;69.97
71149;BME280;59072;42.144;25.200;2022-10-16T00:47:11;100832.50;;;10.04;69.61
71149;BME280;59072;42.144;25.200;2022-10-16T00:49:38;100836.75;;;9.92;69.68
71149;BME280;59072;42.144;25.200;2022-10-16T00:52:05;100834.09;;;9.36;71.38
71149;BME280;59072;42.144;25.200;2022-10-16T00:54:31;100824.75;;;9.47;70.82
71149;BME280;59072;42.144;25.200;2022-10-16T00:57:01;100824.91;;;9.67;70.85
71149;BME280;59072;42.144;25.200;2022-10-16T00:59:29;100842.84;;;9.86;69.77
71149;BME280;59072;42.144;25.200;2022-10-16T01:01:57;100850.69;;;9.94;69.83
71149;BME280;59072;42.144;25.200;2022-10-16T01:04:23;100832.19;;;9.86;69.88
71149;BME280;59072;42.144;25.200;2022-10-16T01:12:45;100836.88;;;9.84;68.97
71149;BME280;59072;42.144;25.200;2022-10-16T01:15:46;100862.09;;;10.16;68.40
71149;BME280;59072;42.144;25.200;2022-10-16T01:18:37;100855.31;;;10.14;68.68
71149;BME280;59072;42.144;25.200;2022-10-16T01:21:06;100856.16;;;10.21;68.83
71149;BME280;59072;42.144;25.200;2022-10-16T01:28:52;100870.88;;;10.10;69.63
71149;BME280;59072;42.144;25.200;2022-10-16T01:31:23;100848.75;;;10.10;69.75
71149;BME280;59072;42.144;25.200;2022-10-16T01:34:25;100865.31;;;10.40;69.25
71149;BME280;59072;42.144;25.200;2022-10-16T01:37:03;100870.44;;;10.35;69.46
71149;BME280;59072;42.144;25.200;2022-10-16T01:39:32;100842.22;;;10.19;69.61
71149;BME280;59072;42.144;25.200;2022-10-16T01:42:13;100875.16;;;10.04;70.75
71149;BME280;59072;42.144;25.200;2022-10-16T01:44:41;100870.41;;;10.00;71.71
71149;BME280;59072;42.144;25.200;2022-10-16T01:47:09;100857.91;;;10.00;71.73
71149;BME280;59072;42.144;25.200;2022-10-16T01:49:37;100879.38;;;9.92;71.80
71149;BME280;59072;42.144;25.200;2022-10-16T01:52:10;100880.06;;;9.73;72.74
71149;BME280;59072;42.144;25.200;2022-10-16T01:54:41;100871.78;;;9.89;72.16
71149;BME280;59072;42.144;25.200;2022-10-16T01:57:07;100869.66;;;10.13;71.17
71149;BME280;59072;42.144;25.200;2022-10-16T01:59:36;100860.41;;;10.09;71.59
71149;BME280;59072;42.144;25.200;2022-10-16T02:02:06;100857.69;;;9.67;73.23
71149;BME280;59072;42.144;25.200;2022-10-16T02:04:37;100872.78;;;9.88;73.12
71149;BME280;59072;42.144;25.200;2022-10-16T02:07:03;100849.59;;;9.82;72.54
71149;BME280;59072;42.144;25.200;2022-10-16T02:09:30;100861.13;;;9.89;73.87
71149;BME280;59072;42.144;25.200;2022-10-16T02:11:59;100877.09;;;9.89;74.88
71149;BME280;59072;42.144;25.200;2022-10-16T02:14:29;100878.25;;;9.80;75.81
71149;BME280;59072;42.144;25.200;2022-10-16T02:16:54;100876.69;;;9.64;76.20
71149;BME280;59072;42.144;25.200;2022-10-16T02:19:20;100884.41;;;9.80;75.59
71149;BME280;59072;42.144;25.200;2022-10-16T02:21:51;100882.38;;;9.82;75.38
71149;BME280;59072;42.144;25.200;2022-10-16T02:27:07;100889.09;;;9.78;76.07
71149;BME280;59072;42.144;25.200;2022-10-16T02:29:39;100864.56;;;9.83;75.03
71149;BME280;59072;42.144;25.200;2022-10-16T02:32:07;100870.53;;;9.85;74.74
71149;BME280;59072;42.144;25.200;2022-10-16T02:34:36;100889.84;;;9.94;75.37
71149;BME280;59072;42.144;25.200;2022-10-16T02:37:04;100897.34;;;10.12;74.14
71149;BME280;59072;42.144;25.200;2022-10-16T02:39:30;100878.88;;;9.82;74.86
71149;BME280;59072;42.144;25.200;2022-10-16T02:41:56;100894.69;;;9.83;75.59
71149;BME280;59072;42.144;25.200;2022-10-16T02:44:22;100891.19;;;9.83;76.10
71149;BME280;59072;42.144;25.200;2022-10-16T02:46:47;100873.19;;;9.85;76.01
71149;BME280;59072;42.144;25.200;2022-10-16T02:49:12;100890.06;;;9.99;75.82
71149;BME280;59072;42.144;25.200;2022-10-16T02:51:38;100867.06;;;9.91;75.55
71149;BME280;59072;42.144;25.200;2022-10-16T02:54:03;100901.00;;;10.11;75.20
71149;BME280;59072;42.144;25.200;2022-10-16T02:56:29;100902.75;;;9.97;75.38
71149;BME280;59072;42.144;25.200;2022-10-16T02:58:55;100905.78;;;9.87;76.22
71149;BME280;59072;42.144;25.200;2022-10-16T03:01:21;100900.00;;;10.12;75.31
71149;BME280;59072;42.144;25.200;2022-10-16T03:03:46;100902.75;;;10.25;75.27
71149;BME280;59072;42.144;25.200;2022-10-16T03:06:11;100898.31;;;10.04;76.11
71149;BME280;59072;42.144;25.200;2022-10-16T03:08:37;100901.50;;;9.93;76.50
71149;BME280;59072;42.144;25.200;2022-10-16T03:11:02;100904.47;;;10.33;74.90
71149;BME280;59072;42.144;25.200;2022-10-16T03:13:27;100894.84;;;10.03;74.77
71149;BME280;59072;42.144;25.200;2022-10-16T03:15:53;100924.22;;;10.17;75.21
71149;BME280;59072;42.144;25.200;2022-10-16T03:18:18;100896.44;;;9.98;75.18
71149;BME280;59072;42.144;25.200;2022-10-16T03:20:44;100902.28;;;9.86;75.62
71149;BME280;59072;42.144;25.200;2022-10-16T03:23:09;100914.91;;;9.78;76.52
71149;BME280;59072;42.144;25.200;2022-10-16T03:25:35;100916.47;;;9.65;77.11
71149;BME280;59072;42.144;25.200;2022-10-16T03:28:01;100891.00;;;9.56;77.12
71149;BME280;59072;42.144;25.200;2022-10-16T03:30:27;100911.31;;;9.64;77.28
71149;BME280;59072;42.144;25.200;2022-10-16T03:32:52;100922.69;;;9.73;77.83
71149;BME280;59072;42.144;25.200;2022-10-16T03:35:23;100919.25;;;9.57;78.26
71149;BME280;59072;42.144;25.200;2022-10-16T03:37:49;100913.44;;;9.47;77.63
71149;BME280;59072;42.144;25.200;2022-10-16T03:40:15;100927.88;;;9.81;77.69
71149;BME280;59072;42.144;25.200;2022-10-16T03:42:44;100927.31;;;9.92;76.59
71149;BME280;59072;42.144;25.200;2022-10-16T03:45:11;100933.00;;;10.11;75.86
71149;BME280;59072;42.144;25.200;2022-10-16T03:47:36;100923.25;;;9.96;75.34
71149;BME280;59072;42.144;25.200;2022-10-16T03:50:03;100923.84;;;9.92;75.33
71149;BME280;59072;42.144;25.200;2022-10-16T03:52:29;100936.84;;;10.01;76.14
71149;BME280;59072;42.144;25.200;2022-10-16T03:54:54;100948.69;;;9.99;75.01
71149;BME280;59072;42.144;25.200;2022-10-16T03:57:20;100920.28;;;9.56;76.58
71149;BME280;59072;42.144;25.200;2022-10-16T03:59:46;100916.78;;;9.56;77.03
71149;BME280;59072;42.144;25.200;2022-10-16T04:02:12;100948.66;;;9.92;75.69
71149;BME280;59072;42.144;25.200;2022-10-16T04:04:38;100936.59;;;9.96;75.45
71149;BME280;59072;42.144;25.200;2022-10-16T04:07:03;100928.09;;;9.86;74.93
71149;BME280;59072;42.144;25.200;2022-10-16T04:09:29;100915.22;;;9.90;75.49
71149;BME280;59072;42.144;25.200;2022-10-16T04:11:54;100940.56;;;10.07;74.59
71149;BME280;59072;42.144;25.200;2022-10-16T04:14:20;100956.91;;;9.97;75.03
71149;BME280;59072;42.144;25.200;2022-10-16T04:16:45;100952.44;;;10.04;74.67
71149;BME280;59072;42.144;25.200;2022-10-16T04:19:11;100943.56;;;9.97;74.99
71149;BME280;59072;42.144;25.200;2022-10-16T04:21:36;100924.03;;;9.90;75.07
71149;BME280;59072;42.144;25.200;2022-10-16T04:24:02;100948.34;;;10.09;74.30
71149;BME280;59072;42.144;25.200;2022-10-16T04:26:28;100949.16;;;10.09;74.32
71149;BME280;59072;42.144;25.200;2022-10-16T04:28:54;100941.69;;;9.91;74.68
71149;BME280;59072;42.144;25.200;2022-10-16T04:31:20;100917.22;;;9.59;75.56
71149;BME280;59072;42.144;25.200;2022-10-16T04:33:45;100945.47;;;9.82;75.17
71149;BME280;59072;42.144;25.200;2022-10-16T04:36:11;100941.56;;;9.78;74.95
71149;BME280;59072;42.144;25.200;2022-10-16T04:38:36;100938.94;;;9.56;75.57
71149;BME280;59072;42.144;25.200;2022-10-16T04:41:03;100953.50;;;9.39;76.46
71149;BME280;59072;42.144;25.200;2022-10-16T04:43:29;100950.06;;;9.67;74.28
71149;BME280;59072;42.144;25.200;2022-10-16T04:45:54;100960.25;;;9.84;73.77
71149;BME280;59072;42.144;25.200;2022-10-16T04:48:20;100945.00;;;9.50;74.36
71149;BME280;59072;42.144;25.200;2022-10-16T04:50:46;100943.84;;;9.59;73.73
71149;BME280;59072;42.144;25.200;2022-10-16T04:53:11;100944.56;;;9.47;74.16
71149;BME280;59072;42.144;25.200;2022-10-16T04:55:37;100956.28;;;9.52;74.94
71149;BME280;59072;42.144;25.200;2022-10-16T04:58:03;100969.69;;;9.22;75.86
71149;BME280;59072;42.144;25.200;2022-10-16T05:00:29;100930.16;;;8.68;77.51
71149;BME280;59072;42.144;25.200;2022-10-16T05:02:54;100954.59;;;9.08;76.94
71149;BME280;59072;42.144;25.200;2022-10-16T05:05:20;100951.81;;;9.16;76.30
71149;BME280;59072;42.144;25.200;2022-10-16T05:07:46;100978.91;;;9.41;75.86
71149;BME280;59072;42.144;25.200;2022-10-16T05:10:12;100980.38;;;9.44;74.92
71149;BME280;59072;42.144;25.200;2022-10-16T05:12:37;100972.25;;;9.31;75.01
71149;BME280;59072;42.144;25.200;2022-10-16T05:15:03;100973.22;;;9.08;76.09
71149;BME280;59072;42.144;25.200;2022-10-16T05:17:29;100980.78;;;8.90;76.96
71149;BME280;59072;42.144;25.200;2022-10-16T05:19:54;100988.16;;;9.09;77.01
71149;BME280;59072;42.144;25.200;2022-10-16T05:22:20;100978.31;;;9.24;76.59
71149;BME280;59072;42.144;25.200;2022-10-16T05:24:45;100979.59;;;9.29;76.60
71149;BME280;59072;42.144;25.200;2022-10-16T05:27:11;100991.66;;;9.46;76.18
71149;BME280;59072;42.144;25.200;2022-10-16T05:29:44;100975.88;;;9.66;75.15
71149;BME280;59072;42.144;25.200;2022-10-16T05:32:10;100986.66;;;9.79;74.82
71149;BME280;59072;42.144;25.200;2022-10-16T05:34:36;100972.16;;;9.60;75.32
71149;BME280;59072;42.144;25.200;2022-10-16T05:37:01;100988.53;;;9.64;75.58
71149;BME280;59072;42.144;25.200;2022-10-16T05:39:26;100987.97;;;9.47;76.11
71149;BME280;59072;42.144;25.200;2022-10-16T05:41:52;100984.88;;;9.65;75.30
71149;BME280;59072;42.144;25.200;2022-10-16T05:44:17;101003.09;;;9.83;75.19
71149;BME280;59072;42.144;25.200;2022-10-16T05:46:43;100994.97;;;9.91;75.30
71149;BME280;59072;42.144;25.200;2022-10-16T05:49:08;101005.88;;;9.96;75.57
71149;BME280;59072;42.144;25.200;2022-10-16T05:51:33;101021.16;;;10.31;74.22
71149;BME280;59072;42.144;25.200;2022-10-16T05:53:59;101009.72;;;10.37;73.81
71149;BME280;59072;42.144;25.200;2022-10-16T05:56:24;101009.22;;;10.55;73.26
71149;BME280;59072;42.144;25.200;2022-10-16T05:58:50;101025.09;;;10.70;73.14
71149;BME280;59072;42.144;25.200;2022-10-16T06:01:17;101031.69;;;10.74;72.75
71149;BME280;59072;42.144;25.200;2022-10-16T06:03:43;101017.38;;;10.81;73.41
71149;BME280;59072;42.144;25.200;2022-10-16T06:06:15;101030.56;;;10.90;72.99
71149;BME280;59072;42.144;25.200;2022-10-16T06:08:41;101038.25;;;11.06;72.29
71149;BME280;59072;42.144;25.200;2022-10-16T06:11:09;101037.03;;;11.15;72.39
71149;BME280;59072;42.144;25.200;2022-10-16T06:13:36;101021.41;;;11.05;71.11
71149;BME280;59072;42.144;25.200;2022-10-16T06:16:02;101047.94;;;11.14;71.64
71149;BME280;59072;42.144;25.200;2022-10-16T06:18:29;101038.09;;;11.27;71.16
71149;BME280;59072;42.144;25.200;2022-10-16T06:20:55;101050.66;;;11.27;71.26
71149;BME280;59072;42.144;25.200;2022-10-16T06:23:21;101033.00;;;11.33;70.23
71149;BME280;59072;42.144;25.200;2022-10-16T06:25:47;101051.78;;;11.59;70.10
71149;BME280;59072;42.144;25.200;2022-10-16T06:28:15;101056.41;;;11.31;71.17
71149;BME280;59072;42.144;25.200;2022-10-16T06:30:41;101051.16;;;11.57;71.48
71149;BME280;59072;42.144;25.200;2022-10-16T06:33:10;101062.53;;;11.79;71.58
71149;BME280;59072;42.144;25.200;2022-10-16T06:35:35;101066.53;;;12.03;70.37
71149;BME280;59072;42.144;25.200;2022-10-16T06:38:01;101064.25;;;12.14;69.99
71149;BME280;59072;42.144;25.200;2022-10-16T06:40:26;101062.63;;;12.26;69.66
71149;BME280;59072;42.144;25.200;2022-10-16T06:42:54;101049.03;;;12.21;69.17
71149;BME280;59072;42.144;25.200;2022-10-16T06:45:20;101068.75;;;12.73;67.63
71149;BME280;59072;42.144;25.200;2022-10-16T06:47:45;101075.31;;;12.84;68.57
71149;BME280;59072;42.144;25.200;2022-10-16T06:50:10;101054.31;;;12.88;67.65
71149;BME280;59072;42.144;25.200;2022-10-16T06:52:36;101055.53;;;12.92;67.08
71149;BME280;59072;42.144;25.200;2022-10-16T06:55:02;101056.97;;;12.94;67.33
71149;BME280;59072;42.144;25.200;2022-10-16T06:57:28;101080.78;;;13.22;66.82
71149;BME280;59072;42.144;25.200;2022-10-16T06:59:53;101081.03;;;13.14;67.50
71149;BME280;59072;42.144;25.200;2022-10-16T07:02:19;101086.72;;;13.38;66.99
71149;BME280;59072;42.144;25.200;2022-10-16T07:04:44;101069.44;;;13.34;66.74
71149;BME280;59072;42.144;25.200;2022-10-16T07:07:10;101073.97;;;13.26;66.84
71149;BME280;59072;42.144;25.200;2022-10-16T07:09:35;101085.44;;;13.54;66.42
71149;BME280;59072;42.144;25.200;2022-10-16T07:12:01;101094.72;;;13.51;66.20
71149;BME280;59072;42.144;25.200;2022-10-16T07:14:26;101089.97;;;13.53;66.31
71149;BME280;59072;42.144;25.200;2022-10-16T07:16:52;101086.03;;;13.56;66.49
71149;BME280;59072;42.144;25.200;2022-10-16T07:19:17;101091.88;;;13.84;65.38
71149;BME280;59072;42.144;25.200;2022-10-16T07:21:43;101072.06;;;13.85;65.38
71149;BME280;59072;42.144;25.200;2022-10-16T07:24:16;101098.59;;;14.25;64.51
71149;BME280;59072;42.144;25.200;2022-10-16T07:26:43;101096.47;;;14.34;64.81
71149;BME280;59072;42.144;25.200;2022-10-16T07:29:14;101101.53;;;14.49;65.06
71149;BME280;59072;42.144;25.200;2022-10-16T07:31:41;101099.44;;;14.76;63.40
71149;BME280;59072;42.144;25.200;2022-10-16T07:34:06;101069.25;;;14.81;62.22
71149;BME280;59072;42.144;25.200;2022-10-16T07:36:32;101081.31;;;14.72;61.98
71149;BME280;59072;42.144;25.200;2022-10-16T07:38:57;101088.44;;;14.84;61.93
71149;BME280;59072;42.144;25.200;2022-10-16T07:41:23;101090.69;;;14.88;60.93
71149;BME280;59072;42.144;25.200;2022-10-16T07:43:50;101079.31;;;14.67;62.56
71149;BME280;59072;42.144;25.200;2022-10-16T07:46:17;101097.00;;;15.12;61.76
71149;BME280;59072;42.144;25.200;2022-10-16T07:48:43;101103.22;;;15.31;60.00
71149;BME280;59072;42.144;25.200;2022-10-16T07:51:11;101095.00;;;15.25;60.89
71149;BME280;59072;42.144;25.200;2022-10-16T07:53:37;101098.75;;;15.43;59.50
71149;BME280;59072;42.144;25.200;2022-10-16T07:56:05;101095.47;;;15.41;59.71
71149;BME280;59072;42.144;25.200;2022-10-16T07:58:31;101064.16;;;15.28;59.22
71149;BME280;59072;42.144;25.200;2022-10-16T08:00:58;101107.91;;;15.72;58.46
71149;BME280;59072;42.144;25.200;2022-10-16T08:03:24;101101.19;;;15.93;58.75
71149;BME280;59072;42.144;25.200;2022-10-16T08:05:49;101096.91;;;16.04;56.63
71149;BME280;59072;42.144;25.200;2022-10-16T08:08:18;101112.78;;;15.94;57.41
71149;BME280;59072;42.144;25.200;2022-10-16T08:10:44;101097.94;;;16.03;57.13
71149;BME280;59072;42.144;25.200;2022-10-16T08:13:10;101092.59;;;16.15;57.34
71149;BME280;59072;42.144;25.200;2022-10-16T08:15:36;101070.50;;;16.13;56.39
71149;BME280;59072;42.144;25.200;2022-10-16T08:18:03;101105.41;;;16.66;55.57
71149;BME280;59072;42.144;25.200;2022-10-16T08:20:30;101092.69;;;16.85;55.37
71149;BME280;59072;42.144;25.200;2022-10-16T08:22:56;101086.47;;;16.97;53.37
71149;BME280;59072;42.144;25.200;2022-10-16T08:25:23;101066.53;;;16.51;53.39
71149;BME280;59072;42.144;25.200;2022-10-16T08:27:49;101065.97;;;16.60;53.23
71149;BME280;59072;42.144;25.200;2022-10-16T08:30:16;101056.91;;;17.02;54.10
71149;BME280;59072;42.144;25.200;2022-10-16T08:32:41;101069.72;;;17.06;53.54
71149;BME280;59072;42.144;25.200;2022-10-16T08:35:08;101086.53;;;17.25;52.17
71149;BME280;59072;42.144;25.200;2022-10-16T08:37:34;101070.97;;;17.56;52.95
71149;BME280;59072;42.144;25.200;2022-10-16T08:40:00;101083.72;;;17.61;51.02
71149;BME280;59072;42.144;25.200;2022-10-16T08:50:52;101065.53;;;17.68;50.24
71149;BME280;59072;42.144;25.200;2022-10-16T08:53:23;101081.66;;;17.80;48.90
71149;BME280;59072;42.144;25.200;2022-10-16T08:55:52;101083.28;;;17.52;48.89
71149;BME280;59072;42.144;25.200;2022-10-16T08:58:20;101072.22;;;17.65;48.02
71149;BME280;59072;42.144;25.200;2022-10-16T09:00:46;101098.41;;;17.82;47.70
71149;BME280;59072;42.144;25.200;2022-10-16T09:03:33;101095.84;;;17.87;47.37
71149;BME280;59072;42.144;25.200;2022-10-16T09:09:08;101099.97;;;18.23;46.75
71149;BME280;59072;42.144;25.200;2022-10-16T09:12:00;101098.59;;;18.21;45.60
71149;BME280;59072;42.144;25.200;2022-10-16T09:17:00;101078.38;;;18.06;43.00
71149;BME280;59072;42.144;25.200;2022-10-16T09:19:35;101093.59;;;18.46;44.54
71149;BME280;59072;42.144;25.200;2022-10-16T09:22:12;101075.00;;;18.67;44.48
71149;BME280;59072;42.144;25.200;2022-10-16T09:24:39;101083.75;;;18.91;42.27
71149;BME280;59072;42.144;25.200;2022-10-16T09:27:04;101073.84;;;19.19;42.72
71149;BME280;59072;42.144;25.200;2022-10-16T09:29:32;101063.31;;;19.22;41.53
71149;BME280;59072;42.144;25.200;2022-10-16T09:32:10;101078.41;;;19.18;42.28
71149;BME280;59072;42.144;25.200;2022-10-16T09:34:40;101078.84;;;19.32;40.58
71149;BME280;59072;42.144;25.200;2022-10-16T09:37:14;101087.53;;;19.34;40.31
71149;BME280;59072;42.144;25.200;2022-10-16T09:42:20;101079.94;;;20.07;40.02
71149;BME280;59072;42.144;25.200;2022-10-16T09:44:50;101080.47;;;20.04;38.92
71149;BME280;59072;42.144;25.200;2022-10-16T09:47:18;101069.03;;;20.35;39.83
71149;BME280;59072;42.144;25.200;2022-10-16T09:52:24;101069.34;;;19.74;39.78
71149;BME280;59072;42.144;25.200;2022-10-16T09:54:53;101060.91;;;19.48;41.09
71149;BME280;59072;42.144;25.200;2022-10-16T09:57:19;101069.50;;;19.67;40.64
71149;BME280;59072;42.144;25.200;2022-10-16T09:59:52;101044.72;;;19.75;39.59
71149;BME280;59072;42.144;25.200;2022-10-16T10:02:23;101073.44;;;20.09;38.72
71149;BME280;59072;42.144;25.200;2022-10-16T10:04:53;101060.50;;;20.53;39.88
71149;BME280;59072;42.144;25.200;2022-10-16T10:07:27;101034.63;;;20.73;37.57
71149;BME280;59072;42.144;25.200;2022-10-16T10:09:54;101045.63;;;20.56;37.69
71149;BME280;59072;42.144;25.200;2022-10-16T10:12:25;101052.44;;;20.63;37.50
71149;BME280;59072;42.144;25.200;2022-10-16T10:14:53;101047.34;;;20.67;38.48
71149;BME280;59072;42.144;25.200;2022-10-16T10:17:22;101049.59;;;20.80;37.58
71149;BME280;59072;42.144;25.200;2022-10-16T10:19:56;101031.72;;;20.90;37.82
71149;BME280;59072;42.144;25.200;2022-10-16T10:22:41;101052.44;;;21.16;36.22
71149;BME280;59072;42.144;25.200;2022-10-16T10:33:50;101045.53;;;21.51;36.06
71149;BME280;59072;42.144;25.200;2022-10-16T10:36:29;101038.50;;;20.87;36.33
71149;BME280;59072;42.144;25.200;2022-10-16T10:39:00;101029.16;;;21.25;37.35
71149;BME280;59072;42.144;25.200;2022-10-16T11:00:28;101021.16;;;22.43;34.14
71149;BME280;59072;42.144;25.200;2022-10-16T11:06:12;101005.34;;;22.56;34.02
71149;BME280;59072;42.144;25.200;2022-10-16T11:11:32;101010.03;;;23.10;32.93
71149;BME280;59072;42.144;25.200;2022-10-16T11:14:05;101001.50;;;22.72;33.53
71149;BME280;59072;42.144;25.200;2022-10-16T11:16:37;100993.19;;;23.13;33.11
71149;BME280;59072;42.144;25.200;2022-10-16T11:24:49;100985.56;;;23.55;31.36
71149;BME280;59072;42.144;25.200;2022-10-16T11:27:43;101009.66;;;23.77;31.79
71149;BME280;59072;42.144;25.200;2022-10-16T11:30:24;101005.22;;;23.86;32.38
71149;BME280;59072;42.144;25.200;2022-10-16T11:38:14;100997.22;;;23.60;32.79
71149;BME280;59072;42.144;25.200;2022-10-16T11:40:43;101003.91;;;23.39;33.18
71149;BME280;59072;42.144;25.200;2022-10-16T11:43:16;100993.53;;;22.91;32.66
71149;BME280;59072;42.144;25.200;2022-10-16T11:45:49;100986.94;;;23.52;33.19
71149;BME280;59072;42.144;25.200;2022-10-16T11:51:02;100991.59;;;24.44;31.23
71149;BME280;59072;42.144;25.200;2022-10-16T11:56:19;100993.19;;;23.92;31.75
71149;BME280;59072;42.144;25.200;2022-10-16T12:07:01;100986.56;;;24.57;29.73
71149;BME280;59072;42.144;25.200;2022-10-16T12:09:31;100989.63;;;24.74;30.28
71149;BME280;59072;42.144;25.200;2022-10-16T12:11:58;100972.47;;;24.50;29.83
71149;BME280;59072;42.144;25.200;2022-10-16T12:14:34;100993.59;;;24.04;30.52
71149;BME280;59072;42.144;25.200;2022-10-16T12:17:03;100987.09;;;24.00;31.43
71149;BME280;59072;42.144;25.200;2022-10-16T12:19:32;100981.69;;;23.66;31.33
71149;BME280;59072;42.144;25.200;2022-10-16T12:22:00;100991.72;;;23.65;30.74
71149;BME280;59072;42.144;25.200;2022-10-16T12:27:01;100997.41;;;24.62;29.31
71149;BME280;59072;42.144;25.200;2022-10-16T12:29:41;100995.56;;;24.28;29.98
71149;BME280;59072;42.144;25.200;2022-10-16T12:34:53;100979.50;;;24.99;29.49
71149;BME280;59072;42.144;25.200;2022-10-16T12:37:26;101000.13;;;25.48;28.50
71149;BME280;59072;42.144;25.200;2022-10-16T12:39:54;101007.06;;;25.40;29.76
71149;BME280;59072;42.144;25.200;2022-10-16T12:44:52;100993.34;;;24.83;29.61
71149;BME280;59072;42.144;25.200;2022-10-16T12:49:56;101006.16;;;25.45;29.18
71149;BME280;59072;42.144;25.200;2022-10-16T12:54:59;101007.38;;;24.96;29.12
71149;BME280;59072;42.144;25.200;2022-10-16T13:25:50;101009.91;;;27.03;25.56
71149;BME280;59072;42.144;25.200;2022-10-16T13:28:22;101003.56;;;26.66;26.01
71149;BME280;59072;42.144;25.200;2022-10-16T13:30:55;101006.81;;;26.82;25.71
71149;BME280;59072;42.144;25.200;2022-10-16T13:33:41;100999.66;;;27.22;24.90
71149;BME280;59072;42.144;25.200;2022-10-16T13:39:14;101013.03;;;28.77;23.23
71149;BME280;59072;42.144;25.200;2022-10-16T13:41:42;101007.47;;;28.99;23.27
71149;BME280;59072;42.144;25.200;2022-10-16T13:44:27;101013.31;;;29.68;22.02
71149;BME280;59072;42.144;25.200;2022-10-16T13:46:58;101012.75;;;30.09;21.45
71149;BME280;59072;42.144;25.200;2022-10-16T13:49:23;101001.84;;;30.69;20.49
71149;BME280;59072;42.144;25.200;2022-10-16T13:51:57;101019.16;;;31.29;20.30
71149;BME280;59072;42.144;25.200;2022-10-16T13:54:24;101010.94;;;30.99;20.79
71149;BME280;59072;42.144;25.200;2022-10-16T13:56:50;101021.56;;;31.30;20.54
71149;BME280;59072;42.144;25.200;2022-10-16T13:59:45;101019.00;;;30.36;21.17
71149;BME280;59072;42.144;25.200;2022-10-16T14:04:47;101038.56;;;32.78;18.95
71149;BME280;59072;42.144;25.200;2022-10-16T14:07:23;101007.81;;;32.79;19.37
71149;BME280;59072;42.144;25.200;2022-10-16T14:09:50;101032.44;;;31.06;20.24
71149;BME280;59072;42.144;25.200;2022-10-16T14:12:16;101026.19;;;30.11;21.29
71149;BME280;59072;42.144;25.200;2022-10-16T14:14:44;101018.81;;;30.79;20.16
71149;BME280;59072;42.144;25.200;2022-10-16T14:17:15;101022.94;;;30.26;21.66
71149;BME280;59072;42.144;25.200;2022-10-16T14:19:46;101018.63;;;31.56;20.13
71149;BME280;59072;42.144;25.200;2022-10-16T14:22:25;101029.91;;;31.21;20.02
71149;BME280;59072;42.144;25.200;2022-10-16T14:24:51;101025.63;;;31.33;19.51
71149;BME280;59072;42.144;25.200;2022-10-16T14:27:33;101037.06;;;32.80;18.49
71149;BME280;59072;42.144;25.200;2022-10-16T14:32:33;101037.53;;;32.70;18.79
71149;BME280;59072;42.144;25.200;2022-10-16T14:34:59;101030.16;;;32.87;18.59
71149;BME280;59072;42.144;25.200;2022-10-16T14:37:27;101040.44;;;33.95;17.86
71149;BME280;59072;42.144;25.200;2022-10-16T14:39:55;101026.28;;;33.69;17.91
71149;BME280;59072;42.144;25.200;2022-10-16T14:42:22;101030.06;;;34.20;17.95
71149;BME280;59072;42.144;25.200;2022-10-16T14:44:52;101034.78;;;34.20;17.63
71149;BME280;59072;42.144;25.200;2022-10-16T14:47:20;101028.72;;;34.14;17.60
71149;BME280;59072;42.144;25.200;2022-10-16T14:49:50;101024.94;;;34.07;17.77
71149;BME280;59072;42.144;25.200;2022-10-16T14:52:15;101041.59;;;33.94;17.97
71149;BME280;59072;42.144;25.200;2022-10-16T14:54:41;101044.06;;;33.55;17.96
71149;BME280;59072;42.144;25.200;2022-10-16T14:57:16;101029.34;;;32.49;19.32
71149;BME280;59072;42.144;25.200;2022-10-16T14:59:43;101028.97;;;31.17;20.98
71149;BME280;59072;42.144;25.200;2022-10-16T15:02:27;101044.84;;;29.53;22.24
71149;BME280;59072;42.144;25.200;2022-10-16T15:04:53;101025.84;;;27.88;24.06
71149;BME280;59072;42.144;25.200;2022-10-16T15:07:19;101027.25;;;27.12;25.54
71149;BME280;59072;42.144;25.200;2022-10-16T15:09:44;101039.72;;;26.02;27.25
71149;BME280;59072;42.144;25.200;2022-10-16T15:12:10;101033.25;;;24.98;29.27